sensor_id;sensor_type;location;lat;lon;timestamp;P1;durP1;ratioP1;P2;durP2;ratioP2
75837;SDS011;64480;52.040;113.502;2023-05-17T00:02:30;10.32;;;3.67;;
75837;SDS011;64480;52.040;113.502;2023-05-17T00:05:34;13.48;;;3.75;;
75837;SDS011;64480;52.040;113.502;2023-05-17T00:08:37;12.75;;;3.80;;
75837;SDS011;64480;52.040;113.502;2023-05-17T00:11:41;7.82;;;2.88;;
75837;SDS011;64480;52.040;113.502;2023-05-17T00:14:44;6.05;;;3.00;;
75837;SDS011;64480;52.040;113.502;2023-05-17T00:17:48;7.85;;;2.85;;
75837;SDS011;64480;52.040;113.502;2023-05-17T00:20:51;8.05;;;2.80;;
75837;SDS011;64480;52.040;113.502;2023-05-17T00:23:55;8.30;;;2.95;;
75837;SDS011;64480;52.040;113.502;2023-05-17T00:26:58;16.77;;;3.13;;
75837;SDS011;64480;52.040;113.502;2023-05-17T00:30:02;8.60;;;3.20;;
75837;SDS011;64480;52.040;113.502;2023-05-17T00:33:10;4.93;;;2.60;;
75837;SDS011;64480;52.040;113.502;2023-05-17T00:36:15;10.70;;;3.15;;
75837;SDS011;64480;52.040;113.502;2023-05-17T00:39:26;7.65;;;3.35;;
75837;SDS011;64480;52.040;113.502;2023-05-17T00:42:31;11.45;;;3.42;;
75837;SDS011;64480;52.040;113.502;2023-05-17T00:45:35;15.65;;;5.25;;
75837;SDS011;64480;52.040;113.502;2023-05-17T00:48:39;9.43;;;3.70;;
75837;SDS011;64480;52.040;113.502;2023-05-17T00:51:44;6.70;;;2.60;;
75837;SDS011;64480;52.040;113.502;2023-05-17T00:54:48;4.88;;;2.05;;
75837;SDS011;64480;52.040;113.502;2023-05-17T00:57:53;6.18;;;2.05;;
75837;SDS011;64480;52.040;113.502;2023-05-17T01:00:56;5.75;;;1.98;;
75837;SDS011;64480;52.040;113.502;2023-05-17T01:04:01;8.85;;;2.58;;
75837;SDS011;64480;52.040;113.502;2023-05-17T01:07:07;9.20;;;2.47;;
75837;SDS011;64480;52.040;113.502;2023-05-17T01:10:12;10.80;;;2.17;;
75837;SDS011;64480;52.040;113.502;2023-05-17T01:13:22;8.85;;;3.00;;
75837;SDS011;64480;52.040;113.502;2023-05-17T01:20:00;4.53;;;1.83;;
75837;SDS011;64480;52.040;113.502;2023-05-17T01:26:38;9.98;;;2.70;;
75837;SDS011;64480;52.040;113.502;2023-05-17T01:29:43;5.15;;;1.90;;
75837;SDS011;64480;52.040;113.502;2023-05-17T01:32:47;5.32;;;2.50;;
75837;SDS011;64480;52.040;113.502;2023-05-17T01:35:52;9.05;;;2.40;;
75837;SDS011;64480;52.040;113.502;2023-05-17T01:38:56;2.60;;;1.60;;
75837;SDS011;64480;52.040;113.502;2023-05-17T01:45:30;5.60;;;2.30;;
75837;SDS011;64480;52.040;113.502;2023-05-17T01:48:51;11.25;;;1.95;;
75837;SDS011;64480;52.040;113.502;2023-05-17T01:52:12;4.00;;;1.98;;
75837;SDS011;64480;52.040;113.502;2023-05-17T01:55:24;5.60;;;1.92;;
75837;SDS011;64480;52.040;113.502;2023-05-17T01:58:36;4.82;;;1.58;;
75837;SDS011;64480;52.040;113.502;2023-05-17T02:01:47;6.65;;;2.60;;
75837;SDS011;64480;52.040;113.502;2023-05-17T02:04:55;5.78;;;2.15;;
75837;SDS011;64480;52.040;113.502;2023-05-17T02:08:00;4.97;;;2.42;;
75837;SDS011;64480;52.040;113.502;2023-05-17T02:11:04;7.93;;;2.40;;
75837;SDS011;64480;52.040;113.502;2023-05-17T02:14:07;12.00;;;3.15;;
75837;SDS011;64480;52.040;113.502;2023-05-17T02:17:14;4.28;;;2.00;;
75837;SDS011;64480;52.040;113.502;2023-05-17T02:20:17;5.95;;;1.90;;
75837;SDS011;64480;52.040;113.502;2023-05-17T02:23:21;7.47;;;3.70;;
75837;SDS011;64480;52.040;113.502;2023-05-17T02:26:26;6.65;;;1.92;;
75837;SDS011;64480;52.040;113.502;2023-05-17T02:29:30;5.47;;;2.38;;
75837;SDS011;64480;52.040;113.502;2023-05-17T02:32:34;6.75;;;2.35;;
75837;SDS011;64480;52.040;113.502;2023-05-17T02:35:38;3.47;;;2.00;;
75837;SDS011;64480;52.040;113.502;2023-05-17T02:38:41;3.95;;;2.00;;
75837;SDS011;64480;52.040;113.502;2023-05-17T02:41:46;3.60;;;2.22;;
75837;SDS011;64480;52.040;113.502;2023-05-17T02:44:50;11.68;;;6.90;;
75837;SDS011;64480;52.040;113.502;2023-05-17T02:47:58;4.25;;;1.90;;
75837;SDS011;64480;52.040;113.502;2023-05-17T02:51:01;6.57;;;1.85;;
75837;SDS011;64480;52.040;113.502;2023-05-17T02:54:05;6.65;;;2.25;;
75837;SDS011;64480;52.040;113.502;2023-05-17T02:57:09;5.75;;;2.13;;
75837;SDS011;64480;52.040;113.502;2023-05-17T03:00:13;6.05;;;2.10;;
75837;SDS011;64480;52.040;113.502;2023-05-17T03:03:18;5.07;;;2.50;;
75837;SDS011;64480;52.040;113.502;2023-05-17T03:06:24;7.13;;;2.58;;
75837;SDS011;64480;52.040;113.502;2023-05-17T03:09:28;7.70;;;3.25;;
75837;SDS011;64480;52.040;113.502;2023-05-17T03:12:32;8.02;;;2.45;;
75837;SDS011;64480;52.040;113.502;2023-05-17T03:15:57;5.68;;;2.00;;
75837;SDS011;64480;52.040;113.502;2023-05-17T03:19:14;2.90;;;1.83;;
75837;SDS011;64480;52.040;113.502;2023-05-17T03:22:39;9.05;;;2.45;;
75837;SDS011;64480;52.040;113.502;2023-05-17T03:25:53;4.93;;;2.20;;
75837;SDS011;64480;52.040;113.502;2023-05-17T03:29:05;5.30;;;1.90;;
75837;SDS011;64480;52.040;113.502;2023-05-17T03:32:10;8.50;;;4.10;;
75837;SDS011;64480;52.040;113.502;2023-05-17T03:35:16;6.95;;;2.83;;
75837;SDS011;64480;52.040;113.502;2023-05-17T03:38:24;15.15;;;4.72;;
75837;SDS011;64480;52.040;113.502;2023-05-17T03:41:29;6.03;;;1.95;;
75837;SDS011;64480;52.040;113.502;2023-05-17T03:44:34;15.25;;;2.70;;
75837;SDS011;64480;52.040;113.502;2023-05-17T03:47:42;10.63;;;2.75;;
75837;SDS011;64480;52.040;113.502;2023-05-17T03:50:51;10.32;;;3.03;;
75837;SDS011;64480;52.040;113.502;2023-05-17T03:53:59;8.35;;;3.03;;
75837;SDS011;64480;52.040;113.502;2023-05-17T03:57:04;6.53;;;2.60;;
75837;SDS011;64480;52.040;113.502;2023-05-17T04:00:10;8.75;;;3.00;;
75837;SDS011;64480;52.040;113.502;2023-05-17T04:03:16;4.78;;;2.67;;
75837;SDS011;64480;52.040;113.502;2023-05-17T04:06:22;8.48;;;3.50;;
75837;SDS011;64480;52.040;113.502;2023-05-17T04:09:27;7.80;;;2.60;;
75837;SDS011;64480;52.040;113.502;2023-05-17T04:12:34;4.45;;;2.58;;
75837;SDS011;64480;52.040;113.502;2023-05-17T04:15:41;5.85;;;2.53;;
75837;SDS011;64480;52.040;113.502;2023-05-17T04:18:44;7.22;;;2.55;;
75837;SDS011;64480;52.040;113.502;2023-05-17T04:21:48;7.38;;;2.58;;
75837;SDS011;64480;52.040;113.502;2023-05-17T04:24:58;7.82;;;4.55;;
75837;SDS011;64480;52.040;113.502;2023-05-17T04:28:03;8.15;;;2.83;;
75837;SDS011;64480;52.040;113.502;2023-05-17T04:31:20;4.88;;;2.38;;
75837;SDS011;64480;52.040;113.502;2023-05-17T04:34:26;6.32;;;2.22;;
75837;SDS011;64480;52.040;113.502;2023-05-17T04:37:40;5.10;;;3.90;;
75837;SDS011;64480;52.040;113.502;2023-05-17T04:40:52;5.93;;;3.15;;
75837;SDS011;64480;52.040;113.502;2023-05-17T04:43:56;5.00;;;2.60;;
75837;SDS011;64480;52.040;113.502;2023-05-17T04:47:06;12.00;;;4.10;;
75837;SDS011;64480;52.040;113.502;2023-05-17T04:50:10;7.30;;;3.03;;
75837;SDS011;64480;52.040;113.502;2023-05-17T04:53:14;12.43;;;3.30;;
75837;SDS011;64480;52.040;113.502;2023-05-17T04:56:18;9.13;;;3.92;;
75837;SDS011;64480;52.040;113.502;2023-05-17T04:59:22;7.85;;;3.92;;
75837;SDS011;64480;52.040;113.502;2023-05-17T05:02:26;10.77;;;2.72;;
75837;SDS011;64480;52.040;113.502;2023-05-17T05:05:30;17.10;;;4.10;;
75837;SDS011;64480;52.040;113.502;2023-05-17T05:08:34;10.20;;;2.58;;
75837;SDS011;64480;52.040;113.502;2023-05-17T05:11:42;5.00;;;2.13;;
75837;SDS011;64480;52.040;113.502;2023-05-17T05:14:46;9.55;;;2.72;;
75837;SDS011;64480;52.040;113.502;2023-05-17T05:17:50;6.50;;;2.90;;
75837;SDS011;64480;52.040;113.502;2023-05-17T05:20:55;9.98;;;3.10;;
75837;SDS011;64480;52.040;113.502;2023-05-17T05:23:59;4.72;;;2.38;;
75837;SDS011;64480;52.040;113.502;2023-05-17T05:27:04;5.95;;;2.42;;
75837;SDS011;64480;52.040;113.502;2023-05-17T05:30:09;9.05;;;2.72;;
75837;SDS011;64480;52.040;113.502;2023-05-17T05:33:14;4.57;;;2.28;;
75837;SDS011;64480;52.040;113.502;2023-05-17T05:36:19;3.10;;;2.13;;
75837;SDS011;64480;52.040;113.502;2023-05-17T05:39:23;4.80;;;2.75;;
75837;SDS011;64480;52.040;113.502;2023-05-17T05:42:27;5.60;;;2.42;;
75837;SDS011;64480;52.040;113.502;2023-05-17T05:45:34;8.27;;;2.63;;
75837;SDS011;64480;52.040;113.502;2023-05-17T05:48:53;6.88;;;3.15;;
75837;SDS011;64480;52.040;113.502;2023-05-17T05:51:59;10.52;;;3.33;;
75837;SDS011;64480;52.040;113.502;2023-05-17T05:55:09;13.82;;;3.42;;
75837;SDS011;64480;52.040;113.502;2023-05-17T05:58:14;16.50;;;8.32;;
75837;SDS011;64480;52.040;113.502;2023-05-17T06:01:23;13.18;;;3.70;;
75837;SDS011;64480;52.040;113.502;2023-05-17T06:04:28;6.82;;;3.50;;
75837;SDS011;64480;52.040;113.502;2023-05-17T06:07:55;13.35;;;3.97;;
75837;SDS011;64480;52.040;113.502;2023-05-17T06:10:59;5.03;;;2.35;;
75837;SDS011;64480;52.040;113.502;2023-05-17T06:14:03;7.50;;;3.15;;
75837;SDS011;64480;52.040;113.502;2023-05-17T06:17:20;5.80;;;2.88;;
75837;SDS011;64480;52.040;113.502;2023-05-17T06:20:25;5.45;;;2.42;;
75837;SDS011;64480;52.040;113.502;2023-05-17T06:23:35;9.63;;;3.08;;
75837;SDS011;64480;52.040;113.502;2023-05-17T06:26:40;9.90;;;3.40;;
75837;SDS011;64480;52.040;113.502;2023-05-17T06:29:45;8.75;;;2.83;;
75837;SDS011;64480;52.040;113.502;2023-05-17T06:32:49;10.57;;;2.70;;
75837;SDS011;64480;52.040;113.502;2023-05-17T06:35:53;6.68;;;2.92;;
75837;SDS011;64480;52.040;113.502;2023-05-17T06:38:59;11.73;;;3.90;;
75837;SDS011;64480;52.040;113.502;2023-05-17T06:42:04;12.10;;;2.85;;
75837;SDS011;64480;52.040;113.502;2023-05-17T06:45:15;7.78;;;2.80;;
75837;SDS011;64480;52.040;113.502;2023-05-17T06:48:27;7.13;;;2.70;;
75837;SDS011;64480;52.040;113.502;2023-05-17T06:51:34;5.97;;;3.15;;
75837;SDS011;64480;52.040;113.502;2023-05-17T06:54:49;5.60;;;2.78;;
75837;SDS011;64480;52.040;113.502;2023-05-17T06:57:55;11.82;;;5.90;;
75837;SDS011;64480;52.040;113.502;2023-05-17T07:01:03;13.20;;;4.28;;
75837;SDS011;64480;52.040;113.502;2023-05-17T07:04:08;10.52;;;3.50;;
75837;SDS011;64480;52.040;113.502;2023-05-17T07:07:19;10.63;;;3.10;;
75837;SDS011;64480;52.040;113.502;2023-05-17T07:10:25;8.75;;;2.78;;
75837;SDS011;64480;52.040;113.502;2023-05-17T07:13:29;6.88;;;3.13;;
75837;SDS011;64480;52.040;113.502;2023-05-17T07:16:33;5.35;;;2.83;;
75837;SDS011;64480;52.040;113.502;2023-05-17T07:19:41;8.40;;;2.58;;
75837;SDS011;64480;52.040;113.502;2023-05-17T07:22:45;8.43;;;3.30;;
75837;SDS011;64480;52.040;113.502;2023-05-17T07:25:51;6.97;;;2.80;;
75837;SDS011;64480;52.040;113.502;2023-05-17T07:28:54;6.47;;;2.70;;
75837;SDS011;64480;52.040;113.502;2023-05-17T07:31:58;4.55;;;2.38;;
75837;SDS011;64480;52.040;113.502;2023-05-17T07:35:02;7.75;;;2.95;;
75837;SDS011;64480;52.040;113.502;2023-05-17T07:38:05;3.58;;;2.20;;
75837;SDS011;64480;52.040;113.502;2023-05-17T07:41:09;7.20;;;2.85;;
75837;SDS011;64480;52.040;113.502;2023-05-17T07:44:15;7.50;;;2.45;;
75837;SDS011;64480;52.040;113.502;2023-05-17T07:47:18;6.47;;;2.55;;
75837;SDS011;64480;52.040;113.502;2023-05-17T07:50:22;14.98;;;2.95;;
75837;SDS011;64480;52.040;113.502;2023-05-17T07:53:36;4.72;;;2.72;;
75837;SDS011;64480;52.040;113.502;2023-05-17T08:07:10;9.93;;;3.70;;
75837;SDS011;64480;52.040;113.502;2023-05-17T08:10:13;9.60;;;3.63;;
75837;SDS011;64480;52.040;113.502;2023-05-17T08:13:19;9.60;;;4.15;;
75837;SDS011;64480;52.040;113.502;2023-05-17T08:16:26;8.70;;;3.80;;
75837;SDS011;64480;52.040;113.502;2023-05-17T08:19:33;13.13;;;3.92;;
75837;SDS011;64480;52.040;113.502;2023-05-17T08:22:36;7.88;;;3.03;;
75837;SDS011;64480;52.040;113.502;2023-05-17T08:25:40;8.68;;;3.25;;
75837;SDS011;64480;52.040;113.502;2023-05-17T08:28:44;10.77;;;3.38;;
75837;SDS011;64480;52.040;113.502;2023-05-17T08:31:48;8.57;;;2.65;;
75837;SDS011;64480;52.040;113.502;2023-05-17T08:35:06;7.57;;;3.00;;
75837;SDS011;64480;52.040;113.502;2023-05-17T08:38:10;4.25;;;2.50;;
75837;SDS011;64480;52.040;113.502;2023-05-17T08:41:13;9.52;;;5.20;;
75837;SDS011;64480;52.040;113.502;2023-05-17T08:44:17;12.30;;;3.55;;
75837;SDS011;64480;52.040;113.502;2023-05-17T08:47:21;12.10;;;2.70;;
75837;SDS011;64480;52.040;113.502;2023-05-17T08:50:31;9.73;;;4.25;;
75837;SDS011;64480;52.040;113.502;2023-05-17T08:53:37;6.25;;;3.60;;
75837;SDS011;64480;52.040;113.502;2023-05-17T08:56:41;5.20;;;2.75;;
75837;SDS011;64480;52.040;113.502;2023-05-17T08:59:45;8.70;;;3.00;;
75837;SDS011;64480;52.040;113.502;2023-05-17T09:02:49;6.32;;;2.75;;
75837;SDS011;64480;52.040;113.502;2023-05-17T09:05:53;6.50;;;3.50;;
75837;SDS011;64480;52.040;113.502;2023-05-17T09:08:57;5.35;;;2.55;;
75837;SDS011;64480;52.040;113.502;2023-05-17T09:12:02;7.15;;;2.80;;
75837;SDS011;64480;52.040;113.502;2023-05-17T09:15:17;5.82;;;2.70;;
75837;SDS011;64480;52.040;113.502;2023-05-17T09:18:31;5.97;;;3.83;;
75837;SDS011;64480;52.040;113.502;2023-05-17T09:21:35;8.98;;;3.70;;
75837;SDS011;64480;52.040;113.502;2023-05-17T09:24:39;11.30;;;5.40;;
75837;SDS011;64480;52.040;113.502;2023-05-17T09:27:44;9.93;;;7.15;;
75837;SDS011;64480;52.040;113.502;2023-05-17T09:30:47;9.60;;;4.95;;
75837;SDS011;64480;52.040;113.502;2023-05-17T09:33:55;11.93;;;3.00;;
75837;SDS011;64480;52.040;113.502;2023-05-17T09:37:01;6.20;;;3.00;;
75837;SDS011;64480;52.040;113.502;2023-05-17T09:43:12;10.30;;;2.78;;
75837;SDS011;64480;52.040;113.502;2023-05-17T09:46:19;7.45;;;3.00;;
75837;SDS011;64480;52.040;113.502;2023-05-17T09:49:26;9.68;;;3.05;;
75837;SDS011;64480;52.040;113.502;2023-05-17T09:52:34;8.02;;;2.90;;
75837;SDS011;64480;52.040;113.502;2023-05-17T09:55:39;9.75;;;2.70;;
75837;SDS011;64480;52.040;113.502;2023-05-17T09:58:43;4.60;;;2.08;;
75837;SDS011;64480;52.040;113.502;2023-05-17T10:01:48;6.05;;;2.65;;
75837;SDS011;64480;52.040;113.502;2023-05-17T10:04:56;11.80;;;3.08;;
75837;SDS011;64480;52.040;113.502;2023-05-17T10:08:00;4.65;;;2.35;;
75837;SDS011;64480;52.040;113.502;2023-05-17T10:11:08;8.73;;;2.60;;
75837;SDS011;64480;52.040;113.502;2023-05-17T10:17:29;9.05;;;3.00;;
75837;SDS011;64480;52.040;113.502;2023-05-17T10:20:34;7.03;;;3.03;;
75837;SDS011;64480;52.040;113.502;2023-05-17T10:23:38;7.25;;;2.92;;
75837;SDS011;64480;52.040;113.502;2023-05-17T10:26:47;6.80;;;2.75;;
75837;SDS011;64480;52.040;113.502;2023-05-17T10:29:52;9.85;;;4.07;;
75837;SDS011;64480;52.040;113.502;2023-05-17T10:32:57;10.48;;;2.92;;
75837;SDS011;64480;52.040;113.502;2023-05-17T10:36:12;11.13;;;2.17;;
75837;SDS011;64480;52.040;113.502;2023-05-17T10:39:19;3.75;;;2.50;;
75837;SDS011;64480;52.040;113.502;2023-05-17T10:42:24;9.32;;;5.68;;
75837;SDS011;64480;52.040;113.502;2023-05-17T10:45:29;8.98;;;2.92;;
75837;SDS011;64480;52.040;113.502;2023-05-17T10:48:33;7.65;;;3.78;;
75837;SDS011;64480;52.040;113.502;2023-05-17T10:51:39;13.18;;;3.70;;
75837;SDS011;64480;52.040;113.502;2023-05-17T10:54:43;13.55;;;6.75;;
75837;SDS011;64480;52.040;113.502;2023-05-17T11:04:59;28.77;;;4.70;;
75837;SDS011;64480;52.040;113.502;2023-05-17T11:08:11;9.10;;;3.10;;
75837;SDS011;64480;52.040;113.502;2023-05-17T11:14:26;6.00;;;2.20;;
75837;SDS011;64480;52.040;113.502;2023-05-17T11:17:48;11.77;;;3.00;;
75837;SDS011;64480;52.040;113.502;2023-05-17T11:21:08;5.18;;;2.92;;
75837;SDS011;64480;52.040;113.502;2023-05-17T11:24:17;16.42;;;7.53;;
75837;SDS011;64480;52.040;113.502;2023-05-17T11:27:34;24.67;;;12.00;;
75837;SDS011;64480;52.040;113.502;2023-05-17T11:30:40;23.60;;;4.38;;
75837;SDS011;64480;52.040;113.502;2023-05-17T11:33:53;8.48;;;3.45;;
75837;SDS011;64480;52.040;113.502;2023-05-17T11:36:57;9.50;;;2.88;;
75837;SDS011;64480;52.040;113.502;2023-05-17T11:40:01;7.95;;;3.20;;
75837;SDS011;64480;52.040;113.502;2023-05-17T11:43:10;9.27;;;3.13;;
75837;SDS011;64480;52.040;113.502;2023-05-17T11:46:18;10.57;;;4.03;;
75837;SDS011;64480;52.040;113.502;2023-05-17T11:49:26;13.55;;;3.45;;
75837;SDS011;64480;52.040;113.502;2023-05-17T11:52:38;8.80;;;4.13;;
75837;SDS011;64480;52.040;113.502;2023-05-17T11:55:47;7.32;;;3.30;;
75837;SDS011;64480;52.040;113.502;2023-05-17T11:58:54;10.82;;;3.40;;
75837;SDS011;64480;52.040;113.502;2023-05-17T12:01:58;8.43;;;3.25;;
75837;SDS011;64480;52.040;113.502;2023-05-17T12:05:01;6.68;;;3.83;;
75837;SDS011;64480;52.040;113.502;2023-05-17T12:08:05;13.25;;;4.80;;
75837;SDS011;64480;52.040;113.502;2023-05-17T12:11:15;12.93;;;5.07;;
75837;SDS011;64480;52.040;113.502;2023-05-17T12:14:20;12.25;;;5.13;;
75837;SDS011;64480;52.040;113.502;2023-05-17T12:17:27;18.38;;;6.22;;
75837;SDS011;64480;52.040;113.502;2023-05-17T12:20:51;15.18;;;5.95;;
75837;SDS011;64480;52.040;113.502;2023-05-17T12:23:59;15.30;;;5.35;;
75837;SDS011;64480;52.040;113.502;2023-05-17T12:27:02;15.18;;;8.10;;
75837;SDS011;64480;52.040;113.502;2023-05-17T12:30:13;41.10;;;18.02;;
75837;SDS011;64480;52.040;113.502;2023-05-17T12:33:18;23.17;;;9.02;;
75837;SDS011;64480;52.040;113.502;2023-05-17T12:36:35;10.93;;;4.40;;
75837;SDS011;64480;52.040;113.502;2023-05-17T12:39:39;14.63;;;4.47;;
75837;SDS011;64480;52.040;113.502;2023-05-17T12:42:42;14.98;;;4.68;;
75837;SDS011;64480;52.040;113.502;2023-05-17T12:45:46;20.48;;;7.13;;
75837;SDS011;64480;52.040;113.502;2023-05-17T12:48:50;12.30;;;5.57;;
75837;SDS011;64480;52.040;113.502;2023-05-17T12:51:54;12.57;;;4.72;;
75837;SDS011;64480;52.040;113.502;2023-05-17T12:54:58;14.65;;;5.25;;
75837;SDS011;64480;52.040;113.502;2023-05-17T12:58:01;12.88;;;5.93;;
75837;SDS011;64480;52.040;113.502;2023-05-17T13:01:06;9.18;;;4.20;;
75837;SDS011;64480;52.040;113.502;2023-05-17T13:04:13;10.30;;;4.60;;
75837;SDS011;64480;52.040;113.502;2023-05-17T13:07:20;16.25;;;5.03;;
75837;SDS011;64480;52.040;113.502;2023-05-17T13:10:28;12.45;;;4.90;;
75837;SDS011;64480;52.040;113.502;2023-05-17T13:13:32;11.98;;;6.35;;
75837;SDS011;64480;52.040;113.502;2023-05-17T13:16:38;13.75;;;5.55;;
75837;SDS011;64480;52.040;113.502;2023-05-17T13:22:46;11.25;;;4.70;;
75837;SDS011;64480;52.040;113.502;2023-05-17T13:25:50;12.93;;;4.95;;
75837;SDS011;64480;52.040;113.502;2023-05-17T13:28:55;16.95;;;4.57;;
75837;SDS011;64480;52.040;113.502;2023-05-17T13:31:59;54.60;;;25.27;;
75837;SDS011;64480;52.040;113.502;2023-05-17T13:35:02;9.13;;;3.97;;
75837;SDS011;64480;52.040;113.502;2023-05-17T13:38:06;8.73;;;3.90;;
75837;SDS011;64480;52.040;113.502;2023-05-17T13:41:10;8.50;;;3.80;;
75837;SDS011;64480;52.040;113.502;2023-05-17T13:44:13;14.25;;;3.63;;
75837;SDS011;64480;52.040;113.502;2023-05-17T13:47:17;12.38;;;4.07;;
75837;SDS011;64480;52.040;113.502;2023-05-17T13:50:21;8.52;;;3.53;;
75837;SDS011;64480;52.040;113.502;2023-05-17T13:53:25;10.50;;;3.60;;
75837;SDS011;64480;52.040;113.502;2023-05-17T13:56:29;6.28;;;3.20;;
75837;SDS011;64480;52.040;113.502;2023-05-17T13:59:32;9.73;;;3.40;;
75837;SDS011;64480;52.040;113.502;2023-05-17T14:02:36;14.10;;;5.80;;
75837;SDS011;64480;52.040;113.502;2023-05-17T14:05:39;7.40;;;3.90;;
75837;SDS011;64480;52.040;113.502;2023-05-17T14:08:43;20.63;;;6.75;;
75837;SDS011;64480;52.040;113.502;2023-05-17T14:11:47;34.35;;;13.18;;
75837;SDS011;64480;52.040;113.502;2023-05-17T14:14:51;40.05;;;15.40;;
75837;SDS011;64480;52.040;113.502;2023-05-17T14:17:54;42.17;;;18.10;;
75837;SDS011;64480;52.040;113.502;2023-05-17T14:20:58;27.48;;;11.90;;
75837;SDS011;64480;52.040;113.502;2023-05-17T14:24:02;34.85;;;16.63;;
75837;SDS011;64480;52.040;113.502;2023-05-17T14:27:06;28.02;;;13.10;;
75837;SDS011;64480;52.040;113.502;2023-05-17T14:30:09;34.75;;;13.20;;
75837;SDS011;64480;52.040;113.502;2023-05-17T14:33:14;27.88;;;12.55;;
75837;SDS011;64480;52.040;113.502;2023-05-17T14:36:18;33.33;;;12.18;;
75837;SDS011;64480;52.040;113.502;2023-05-17T14:39:21;32.45;;;13.93;;
75837;SDS011;64480;52.040;113.502;2023-05-17T14:42:25;28.30;;;11.48;;
75837;SDS011;64480;52.040;113.502;2023-05-17T14:45:29;31.08;;;13.10;;
75837;SDS011;64480;52.040;113.502;2023-05-17T14:48:32;33.60;;;12.05;;
75837;SDS011;64480;52.040;113.502;2023-05-17T14:51:38;30.30;;;12.43;;
75837;SDS011;64480;52.040;113.502;2023-05-17T14:54:42;38.42;;;15.27;;
75837;SDS011;64480;52.040;113.502;2023-05-17T14:57:46;29.83;;;12.98;;
75837;SDS011;64480;52.040;113.502;2023-05-17T15:00:49;34.40;;;11.68;;
75837;SDS011;64480;52.040;113.502;2023-05-17T15:04:07;31.48;;;12.77;;
75837;SDS011;64480;52.040;113.502;2023-05-17T15:07:11;27.25;;;11.75;;
75837;SDS011;64480;52.040;113.502;2023-05-17T15:10:15;37.67;;;12.85;;
75837;SDS011;64480;52.040;113.502;2023-05-17T15:13:19;30.77;;;11.07;;
75837;SDS011;64480;52.040;113.502;2023-05-17T15:16:23;24.77;;;10.32;;
75837;SDS011;64480;52.040;113.502;2023-05-17T15:19:26;22.90;;;10.90;;
75837;SDS011;64480;52.040;113.502;2023-05-17T15:22:30;22.30;;;10.63;;
75837;SDS011;64480;52.040;113.502;2023-05-17T15:25:33;24.55;;;10.60;;
75837;SDS011;64480;52.040;113.502;2023-05-17T15:28:38;19.60;;;8.88;;
75837;SDS011;64480;52.040;113.502;2023-05-17T15:31:41;15.20;;;7.25;;
75837;SDS011;64480;52.040;113.502;2023-05-17T15:34:44;15.25;;;6.93;;
75837;SDS011;64480;52.040;113.502;2023-05-17T15:37:50;18.45;;;6.65;;
75837;SDS011;64480;52.040;113.502;2023-05-17T15:41:05;14.80;;;6.45;;
75837;SDS011;64480;52.040;113.502;2023-05-17T15:44:10;21.73;;;7.40;;
75837;SDS011;64480;52.040;113.502;2023-05-17T15:47:14;18.88;;;7.07;;
75837;SDS011;64480;52.040;113.502;2023-05-17T15:50:17;13.98;;;6.35;;
75837;SDS011;64480;52.040;113.502;2023-05-17T15:53:21;16.13;;;6.43;;
75837;SDS011;64480;52.040;113.502;2023-05-17T15:56:25;17.63;;;6.88;;
75837;SDS011;64480;52.040;113.502;2023-05-17T15:59:28;19.30;;;6.95;;
75837;SDS011;64480;52.040;113.502;2023-05-17T16:02:32;15.55;;;6.25;;
75837;SDS011;64480;52.040;113.502;2023-05-17T16:05:36;18.98;;;6.60;;
75837;SDS011;64480;52.040;113.502;2023-05-17T16:08:40;17.10;;;7.30;;
75837;SDS011;64480;52.040;113.502;2023-05-17T16:11:44;15.23;;;6.78;;
75837;SDS011;64480;52.040;113.502;2023-05-17T16:14:47;14.07;;;7.07;;
75837;SDS011;64480;52.040;113.502;2023-05-17T16:17:51;17.52;;;7.55;;
75837;SDS011;64480;52.040;113.502;2023-05-17T16:20:56;15.27;;;6.80;;
75837;SDS011;64480;52.040;113.502;2023-05-17T16:24:01;16.38;;;7.43;;
75837;SDS011;64480;52.040;113.502;2023-05-17T16:27:05;19.45;;;8.75;;
75837;SDS011;64480;52.040;113.502;2023-05-17T16:30:10;22.08;;;9.38;;
75837;SDS011;64480;52.040;113.502;2023-05-17T16:33:14;25.35;;;10.57;;
75837;SDS011;64480;52.040;113.502;2023-05-17T16:36:18;27.13;;;11.07;;
75837;SDS011;64480;52.040;113.502;2023-05-17T16:39:24;22.33;;;9.93;;
75837;SDS011;64480;52.040;113.502;2023-05-17T16:42:28;24.08;;;8.98;;
75837;SDS011;64480;52.040;113.502;2023-05-17T16:45:32;17.85;;;8.65;;
75837;SDS011;64480;52.040;113.502;2023-05-17T16:48:36;18.58;;;9.35;;
75837;SDS011;64480;52.040;113.502;2023-05-17T16:51:39;19.38;;;8.43;;
75837;SDS011;64480;52.040;113.502;2023-05-17T16:54:47;13.65;;;7.18;;
75837;SDS011;64480;52.040;113.502;2023-05-17T16:57:50;16.75;;;6.60;;
75837;SDS011;64480;52.040;113.502;2023-05-17T17:00:57;14.85;;;6.53;;
75837;SDS011;64480;52.040;113.502;2023-05-17T17:07:28;10.73;;;5.32;;
75837;SDS011;64480;52.040;113.502;2023-05-17T17:10:32;12.52;;;5.20;;
75837;SDS011;64480;52.040;113.502;2023-05-17T17:13:37;11.25;;;6.13;;
75837;SDS011;64480;52.040;113.502;2023-05-17T17:16:41;14.38;;;6.20;;
75837;SDS011;64480;52.040;113.502;2023-05-17T17:19:44;16.65;;;7.30;;
75837;SDS011;64480;52.040;113.502;2023-05-17T17:22:48;13.07;;;5.95;;
75837;SDS011;64480;52.040;113.502;2023-05-17T17:25:54;10.98;;;5.47;;
75837;SDS011;64480;52.040;113.502;2023-05-17T17:28:57;15.65;;;5.70;;
75837;SDS011;64480;52.040;113.502;2023-05-17T17:32:04;10.45;;;5.40;;
75837;SDS011;64480;52.040;113.502;2023-05-17T17:35:08;10.18;;;5.00;;
75837;SDS011;64480;52.040;113.502;2023-05-17T17:38:15;20.98;;;5.90;;
75837;SDS011;64480;52.040;113.502;2023-05-17T17:41:19;13.32;;;5.88;;
75837;SDS011;64480;52.040;113.502;2023-05-17T17:44:26;20.52;;;7.82;;
75837;SDS011;64480;52.040;113.502;2023-05-17T17:50:42;16.05;;;6.65;;
75837;SDS011;64480;52.040;113.502;2023-05-17T17:53:54;21.15;;;8.38;;
75837;SDS011;64480;52.040;113.502;2023-05-17T17:56:58;17.75;;;7.40;;
75837;SDS011;64480;52.040;113.502;2023-05-17T18:00:02;18.30;;;9.13;;
75837;SDS011;64480;52.040;113.502;2023-05-17T18:03:05;22.05;;;8.52;;
75837;SDS011;64480;52.040;113.502;2023-05-17T18:06:26;23.42;;;9.73;;
75837;SDS011;64480;52.040;113.502;2023-05-17T18:09:30;24.15;;;8.63;;
75837;SDS011;64480;52.040;113.502;2023-05-17T18:12:40;21.88;;;9.23;;
75837;SDS011;64480;52.040;113.502;2023-05-17T18:19:15;17.58;;;8.18;;
75837;SDS011;64480;52.040;113.502;2023-05-17T18:25:47;17.00;;;6.85;;
75837;SDS011;64480;52.040;113.502;2023-05-17T18:32:36;12.13;;;5.95;;
75837;SDS011;64480;52.040;113.502;2023-05-17T18:42:36;14.77;;;5.38;;
75837;SDS011;64480;52.040;113.502;2023-05-17T18:45:40;12.13;;;6.28;;
75837;SDS011;64480;52.040;113.502;2023-05-17T18:48:47;11.52;;;4.95;;
75837;SDS011;64480;52.040;113.502;2023-05-17T18:51:50;13.70;;;5.80;;
75837;SDS011;64480;52.040;113.502;2023-05-17T18:54:53;10.77;;;4.97;;
75837;SDS011;64480;52.040;113.502;2023-05-17T19:01:37;11.88;;;5.88;;
75837;SDS011;64480;52.040;113.502;2023-05-17T19:04:42;17.85;;;6.68;;
75837;SDS011;64480;52.040;113.502;2023-05-17T19:07:49;13.27;;;6.30;;